Peritiba, Brazil
Current Conditions -  °F | °C
As of 6:00 AM on Friday 28 Nov 2014 (Local Time) from SBCH Reporting Station
Few Clouds Few Clouds  
Wind Chill: 70°   Ceiling: Unl
Heat Index: 70°   Visibility: 6mi
Dew Point: 59°   Wind: 14mph
Humidity: 68%   Direction: 120°ESE
Pressure: 29.94"   Gusts: NA
Location:  27.37°S, 51.9°W
Report Text: SBCH 280800Z 12012KT 9999 FEW035 21/15 Q1014
Loading
Personal Weather Stations






























Interactive Weather Map New forecast layout! Learn more

10-Day Weather Forecast

Advertisements
Track Severe Weather on mobile